Time;durP1;ratioP1;P1;durP2;ratioP2;P2;SDS_P1;SDS_P2;PMS_P1;PMS_P2;Temp;Humidity;BMP_temperature;BMP_pressure;BME280_temperature;BME280_humidity;BME280_pressure;Samples;Min_cycle;Max_cycle;Signal;HPM_P1;HPM_P2
2022/04/15 00:01:32;;;;;;;17.15;12.95;;;;;;;10.73;80.87;101752.34;5079550;28;20107;-82
2022/04/15 00:03:59;;;;;;;17.90;13.27;;;;;;;10.74;80.47;101751.41;5079262;28;20115;-81
2022/04/15 00:06:26;;;;;;;18.75;14.18;;;;;;;10.76;80.70;101754.72;5079870;28;20044;-81
2022/04/15 00:08:52;;;;;;;19.48;13.93;;;;;;;10.74;80.51;101745.31;5079622;28;20067;-81
2022/04/15 00:11:19;;;;;;;20.52;14.50;;;;;;;10.60;81.52;101751.72;5082020;28;20083;-81
2022/04/15 00:13:47;;;;;;;19.65;14.15;;;;;;;10.55;81.70;101751.28;5104417;22;20087;-82
2022/04/15 00:16:14;;;;;;;25.73;15.05;;;;;;;10.68;81.31;101751.91;5056935;28;20049;-83
2022/04/15 00:18:43;;;;;;;22.67;14.57;;;;;;;10.59;81.40;101757.91;5057466;28;20131;-83
2022/04/15 00:21:11;;;;;;;22.95;14.13;;;;;;;10.49;82.08;101749.16;5058332;28;20049;-83
2022/04/15 00:23:38;;;;;;;19.40;14.13;;;;;;;10.51;81.79;101752.47;5057864;28;20118;-82
2022/04/15 00:26:05;;;;;;;22.92;14.80;;;;;;;10.55;81.75;101746.03;5057024;28;20049;-83
2022/04/15 00:28:32;;;;;;;21.48;14.85;;;;;;;10.49;81.99;101746.53;5056060;28;20113;-83
2022/04/15 00:30:58;;;;;;;21.88;14.90;;;;;;;10.52;82.29;101747.13;5057107;28;20049;-83
2022/04/15 00:33:25;;;;;;;21.38;15.25;;;;;;;10.56;81.71;101751.16;5056958;28;20136;-83
2022/04/15 00:35:53;;;;;;;22.23;14.63;;;;;;;10.50;82.35;101756.06;5056830;28;20113;-83
2022/04/15 00:38:20;;;;;;;19.70;15.02;;;;;;;10.45;82.40;101756.44;5055573;28;20112;-83
2022/04/15 00:40:46;;;;;;;20.20;15.60;;;;;;;10.41;82.30;101754.19;5056995;28;20041;-82
2022/04/15 00:43:13;;;;;;;20.38;15.85;;;;;;;10.44;82.38;101753.94;5056828;28;20088;-83
2022/04/15 00:45:39;;;;;;;22.70;16.45;;;;;;;10.43;82.65;101752.28;5058562;28;20073;-83
2022/04/15 00:48:09;;;;;;;24.55;16.20;;;;;;;10.28;83.25;101763.09;5061455;28;20056;-83
2022/04/15 00:50:36;;;;;;;23.13;16.02;;;;;;;10.23;83.32;101753.97;5061933;28;20060;-83
2022/04/15 00:53:10;;;;;;;23.05;17.08;;;;;;;10.18;83.62;101759.53;5061131;28;20087;-83
2022/04/15 00:55:38;;;;;;;21.13;16.38;;;;;;;10.10;83.77;101755.88;5060214;28;20127;-83
2022/04/15 00:58:06;;;;;;;24.52;17.20;;;;;;;10.08;83.78;101763.84;5061197;28;20524;-83
2022/04/15 01:00:34;;;;;;;22.50;16.65;;;;;;;10.06;84.00;101760.53;5062311;28;20084;-83
2022/04/15 01:03:03;;;;;;;24.48;16.52;;;;;;;10.03;84.70;101763.38;5062368;28;20091;-83
2022/04/15 01:05:40;;;;;;;27.90;18.55;;;;;;;9.88;85.13;101762.03;5062982;28;20045;-83
2022/04/15 01:08:12;;;;;;;25.33;17.35;;;;;;;9.89;85.16;101766.31;5061478;28;20053;-83
2022/04/15 01:10:40;;;;;;;22.05;16.85;;;;;;;9.95;85.11;101760.56;5064477;28;20136;-83
2022/04/15 01:13:07;;;;;;;26.38;17.98;;;;;;;9.85;85.34;101773.56;5066974;28;20127;-83
2022/04/15 01:15:34;;;;;;;26.45;17.77;;;;;;;9.86;85.30;101774.41;5065736;28;20165;-83
2022/04/15 01:18:01;;;;;;;22.85;18.00;;;;;;;9.74;85.94;101773.59;5066621;28;20048;-83
2022/04/15 01:20:28;;;;;;;26.13;18.45;;;;;;;9.80;86.39;101777.50;5066871;28;20076;-83
2022/04/15 01:23:00;;;;;;;27.95;18.38;;;;;;;9.68;86.36;101773.25;5067352;28;20087;-83
2022/04/15 01:25:26;;;;;;;25.60;18.45;;;;;;;9.64;86.66;101780.50;5066495;28;20080;-83
2022/04/15 01:27:53;;;;;;;28.23;19.50;;;;;;;9.66;86.54;101783.84;5065876;28;20060;-83
2022/04/15 01:30:22;;;;;;;27.40;19.38;;;;;;;9.59;87.14;101783.47;5067025;28;20049;-83
2022/04/15 01:32:49;;;;;;;23.73;19.35;;;;;;;9.61;86.75;101780.75;5065635;28;20124;-83
2022/04/15 01:35:17;;;;;;;28.38;20.13;;;;;;;9.55;86.92;101787.28;5064265;28;20456;-83
2022/04/15 01:37:46;;;;;;;31.25;20.73;;;;;;;9.49;87.48;101787.75;5063461;28;20160;-83
2022/04/15 01:40:16;;;;;;;29.25;19.90;;;;;;;9.52;87.20;101784.91;5064181;28;20076;-83
2022/04/15 01:42:45;;;;;;;26.08;19.98;;;;;;;9.43;87.67;101777.81;5064076;28;20144;-83
2022/04/15 01:45:13;;;;;;;27.77;20.02;;;;;;;9.40;87.71;101775.44;5064316;28;20081;-83
2022/04/15 01:47:40;;;;;;;27.08;19.52;;;;;;;9.32;88.39;101780.44;5064547;28;20052;-83
2022/04/15 01:50:08;;;;;;;28.23;19.77;;;;;;;9.33;88.42;101779.50;5063611;28;20590;-83
2022/04/15 01:52:35;;;;;;;30.10;20.95;;;;;;;9.33;88.59;101784.72;5061826;28;20474;-83
2022/04/15 01:55:02;;;;;;;30.02;20.98;;;;;;;9.38;88.53;101790.41;5060809;28;20044;-83
2022/04/15 01:57:30;;;;;;;27.83;21.35;;;;;;;9.27;88.77;101780.81;5059419;28;20085;-83
2022/04/15 01:59:56;;;;;;;34.45;23.65;;;;;;;9.26;89.01;101786.13;5059096;28;20583;-83
2022/04/15 02:02:23;;;;;;;31.83;22.15;;;;;;;9.32;88.96;101796.94;5061709;28;20109;-83
2022/04/15 02:04:50;;;;;;;33.30;22.35;;;;;;;9.34;89.18;101793.38;5063241;28;20072;-83
2022/04/15 02:07:16;;;;;;;34.92;22.70;;;;;;;9.31;89.22;101791.84;5073600;28;20113;-82
2022/04/15 02:09:43;;;;;;;30.00;22.35;;;;;;;9.30;89.30;101809.28;5072818;28;20515;-83
2022/04/15 02:12:10;;;;;;;32.13;23.10;;;;;;;9.32;89.69;101804.78;5061267;28;20045;-83
2022/04/15 02:14:38;;;;;;;33.17;23.58;;;;;;;9.25;89.71;101789.69;5060393;28;20506;-83
2022/04/15 02:17:05;;;;;;;36.78;23.83;;;;;;;9.29;89.55;101798.97;5071807;28;20483;-83
2022/04/15 02:19:32;;;;;;;33.25;23.73;;;;;;;9.22;90.25;101805.59;5062265;28;20072;-82
2022/04/15 02:21:58;;;;;;;32.47;22.65;;;;;;;9.19;90.39;101805.84;5059630;28;20065;-83
2022/04/15 02:24:25;;;;;;;33.97;23.00;;;;;;;9.13;90.12;101798.47;5062093;28;20053;-83
2022/04/15 02:26:51;;;;;;;29.70;22.70;;;;;;;9.08;90.29;101817.09;5062489;28;20045;-83
2022/04/15 02:29:18;;;;;;;29.95;22.70;;;;;;;9.01;90.41;101809.84;5059424;28;20051;-83
2022/04/15 02:31:46;;;;;;;33.45;23.80;;;;;;;9.02;90.68;101806.28;5059225;28;20053;-83
2022/04/15 02:34:12;;;;;;;32.88;23.38;;;;;;;9.02;91.06;101814.97;5058927;28;20084;-82
2022/04/15 02:36:39;;;;;;;37.92;23.40;;;;;;;8.96;91.27;101812.84;5059544;28;20056;-83
2022/04/15 02:39:10;;;;;;;38.42;24.65;;;;;;;8.95;91.64;101813.78;5059678;28;20112;-83
2022/04/15 02:41:37;;;;;;;36.47;25.83;;;;;;;8.90;91.66;101808.91;5060344;28;20056;-83
2022/04/15 02:44:03;;;;;;;36.00;25.40;;;;;;;8.85;92.05;101813.66;5060512;28;20084;-83
2022/04/15 02:46:30;;;;;;;37.13;25.83;;;;;;;8.82;92.05;101807.84;5059334;28;20109;-83
2022/04/15 02:48:58;;;;;;;36.47;25.33;;;;;;;8.75;92.37;101812.69;5059925;28;20145;-83
2022/04/15 02:51:25;;;;;;;32.83;24.25;;;;;;;8.67;92.63;101814.19;5059935;28;20077;-83
2022/04/15 02:53:52;;;;;;;34.00;25.92;;;;;;;8.77;92.40;101815.16;5060433;28;20117;-83
2022/04/15 02:56:18;;;;;;;37.55;26.08;;;;;;;8.78;92.67;101809.84;5059755;28;20048;-83
2022/04/15 02:58:45;;;;;;;38.53;25.20;;;;;;;8.79;92.67;101819.34;5060085;28;20139;-83
2022/04/15 03:01:12;;;;;;;38.40;27.00;;;;;;;8.68;92.67;101819.31;5060401;28;20109;-83
2022/04/15 03:03:38;;;;;;;37.45;25.83;;;;;;;8.63;93.12;101814.41;5061566;28;20501;-83
2022/04/15 03:06:06;;;;;;;33.72;25.45;;;;;;;8.69;93.15;101814.91;5061561;28;20124;-83
2022/04/15 03:08:33;;;;;;;38.75;25.75;;;;;;;8.57;93.27;101807.06;5060659;28;20128;-82
2022/04/15 03:11:00;;;;;;;39.65;27.52;;;;;;;8.60;93.27;101817.25;5062091;28;20136;-84
2022/04/15 03:13:27;;;;;;;45.85;27.33;;;;;;;8.66;93.25;101813.38;5062232;28;20044;-83
2022/04/15 03:15:54;;;;;;;38.35;27.70;;;;;;;8.61;93.88;101816.31;5061316;28;20048;-83
2022/04/15 03:18:20;;;;;;;41.25;28.17;;;;;;;8.57;93.52;101814.88;5061336;28;20143;-83
2022/04/15 03:20:47;;;;;;;48.22;29.23;;;;;;;8.56;93.96;101822.81;5060948;28;20108;-83
2022/04/15 03:23:15;;;;;;;41.67;29.88;;;;;;;8.52;94.28;101827.44;5059051;28;20108;-83
2022/04/15 03:25:41;;;;;;;42.38;27.42;;;;;;;8.53;94.36;101823.03;5059224;28;20095;-83
2022/04/15 03:28:08;;;;;;;41.80;29.25;;;;;;;8.49;94.46;101816.41;5059057;28;20139;-83
2022/04/15 03:30:34;;;;;;;42.42;29.98;;;;;;;8.50;94.10;101818.91;5060071;28;20072;-83
2022/04/15 03:33:01;;;;;;;42.80;28.35;;;;;;;8.46;94.57;101819.25;5059816;28;20459;-83
2022/04/15 03:35:28;;;;;;;42.20;28.88;;;;;;;8.46;94.58;101824.47;5058972;28;20132;-83
2022/04/15 03:37:54;;;;;;;43.67;29.23;;;;;;;8.43;95.02;101819.47;5059485;28;20053;-83
2022/04/15 03:40:23;;;;;;;40.83;28.52;;;;;;;8.39;95.21;101820.66;5058809;28;20117;-83
2022/04/15 03:42:52;;;;;;;42.67;29.80;;;;;;;8.39;95.33;101825.84;5060249;28;20055;-83
2022/04/15 03:45:22;;;;;;;45.30;29.40;;;;;;;8.39;95.59;101828.47;5059223;28;20480;-83
2022/04/15 03:47:49;;;;;;;44.80;29.92;;;;;;;8.34;95.59;101817.53;5059539;28;20084;-83
2022/04/15 03:50:16;;;;;;;48.10;30.65;;;;;;;8.25;95.89;101825.06;5059678;28;20128;-83
2022/04/15 03:52:46;;;;;;;47.45;29.23;;;;;;;8.28;95.96;101832.66;5059711;28;20474;-83
2022/04/15 03:55:14;;;;;;;46.13;30.10;;;;;;;8.23;96.19;101826.09;5059228;28;20087;-83
2022/04/15 03:57:42;;;;;;;46.75;31.63;;;;;;;8.17;96.30;101827.38;5059269;28;20084;-83
2022/04/15 04:00:10;;;;;;;44.03;29.38;;;;;;;8.20;96.63;101829.75;5060056;28;20077;-83
2022/04/15 04:02:37;;;;;;;42.63;29.05;;;;;;;8.14;96.99;101831.97;5059637;28;20136;-83
2022/04/15 04:05:05;;;;;;;39.15;28.27;;;;;;;8.13;96.81;101833.75;5058442;28;20117;-83
2022/04/15 04:07:32;;;;;;;43.47;29.38;;;;;;;8.15;96.72;101829.25;5058905;28;20060;-83
2022/04/15 04:09:59;;;;;;;49.22;29.45;;;;;;;8.13;96.94;101835.53;5059538;28;20084;-83
2022/04/15 04:12:30;;;;;;;44.63;30.08;;;;;;;8.03;97.57;101834.56;5059438;28;20104;-83
2022/04/15 04:14:58;;;;;;;44.20;30.85;;;;;;;7.94;97.72;101836.88;5058743;28;20533;-82
2022/04/15 04:17:25;;;;;;;49.95;30.77;;;;;;;7.92;98.23;101832.72;5059821;28;20179;-83
2022/04/15 04:19:52;;;;;;;48.25;32.17;;;;;;;7.93;98.28;101829.16;5058885;28;20152;-83
2022/04/15 04:22:18;;;;;;;45.95;30.08;;;;;;;7.96;97.92;101839.38;5059468;28;20135;-83
2022/04/15 04:24:45;;;;;;;48.90;30.55;;;;;;;7.97;98.36;101835.81;5059581;28;20095;-83
2022/04/15 04:27:12;;;;;;;47.55;28.90;;;;;;;7.95;98.26;101835.94;5059869;28;20049;-83
2022/04/15 04:29:38;;;;;;;44.40;28.98;;;;;;;7.99;97.89;101840.00;5059089;28;20061;-83
2022/04/15 04:32:07;;;;;;;44.95;30.70;;;;;;;7.98;97.99;101847.91;5060659;28;20511;-83
2022/04/15 04:34:34;;;;;;;42.67;29.30;;;;;;;7.97;97.96;101847.09;5060983;28;20103;-83
2022/04/15 04:37:00;;;;;;;45.13;29.50;;;;;;;8.04;98.00;101841.41;5061675;28;20052;-83
2022/04/15 04:39:29;;;;;;;45.22;28.65;;;;;;;7.89;98.22;101849.41;5062940;28;20132;-83
2022/04/15 04:41:56;;;;;;;46.47;29.15;;;;;;;7.96;98.27;101848.03;5075227;28;20061;-82
2022/04/15 04:44:23;;;;;;;42.42;29.45;;;;;;;7.99;98.30;101858.22;5065153;28;20064;-83
2022/04/15 04:46:50;;;;;;;54.20;30.02;;;;;;;8.04;98.25;101852.66;5059997;28;20120;-83
2022/04/15 04:49:18;;;;;;;42.72;28.83;;;;;;;8.03;98.27;101858.84;5058835;28;20048;-83
2022/04/15 04:51:45;;;;;;;46.13;30.13;;;;;;;8.08;98.25;101864.53;5059252;28;20084;-83
2022/04/15 04:54:12;;;;;;;43.25;28.83;;;;;;;8.13;98.05;101867.66;5059793;28;20108;-83
2022/04/15 04:56:38;;;;;;;46.03;29.77;;;;;;;8.12;97.75;101871.19;5059002;28;20581;-83
2022/04/15 04:59:05;;;;;;;44.33;29.92;;;;;;;8.13;97.36;101866.81;5058735;28;20131;-83
2022/04/15 05:01:32;;;;;;;44.50;30.25;;;;;;;8.20;97.11;101879.31;5059798;28;20049;-83
2022/04/15 05:03:58;;;;;;;49.17;31.33;;;;;;;8.30;96.93;101874.25;5059028;28;20088;-83
2022/04/15 05:06:26;;;;;;;44.70;29.10;;;;;;;8.41;96.34;101876.13;5058747;28;20084;-83
2022/04/15 05:08:53;;;;;;;40.20;28.90;;;;;;;8.47;95.78;101886.13;5057624;28;20132;-84
2022/04/15 05:11:19;;;;;;;41.85;28.10;;;;;;;8.64;95.38;101883.09;5057977;28;20511;-83
2022/04/15 05:13:46;;;;;;;42.63;27.77;;;;;;;8.58;95.20;101894.81;5057977;28;20053;-83
2022/04/15 05:16:15;;;;;;;42.58;27.65;;;;;;;8.67;94.76;101892.47;5057500;28;20341;-84
2022/04/15 05:18:41;;;;;;;38.50;27.85;;;;;;;8.76;94.68;101897.03;5056994;28;20067;-84
2022/04/15 05:21:08;;;;;;;41.88;27.95;;;;;;;8.82;94.71;101899.19;5056465;28;20128;-83
2022/04/15 05:23:36;;;;;;;37.72;27.95;;;;;;;8.90;94.16;101905.50;5056672;28;20067;-83
2022/04/15 05:26:03;;;;;;;42.33;28.60;;;;;;;8.96;93.75;101899.00;5056776;28;20073;-83
2022/04/15 05:28:31;;;;;;;39.22;26.85;;;;;;;8.98;94.07;101907.50;5055696;28;20057;-83
2022/04/15 05:30:58;;;;;;;38.53;27.45;;;;;;;9.07;93.37;101912.06;5057184;28;20053;-83
2022/04/15 05:33:24;;;;;;;43.53;27.75;;;;;;;9.07;93.76;101908.59;5058858;28;20064;-83
2022/04/15 05:35:51;;;;;;;40.55;27.65;;;;;;;9.13;93.56;101915.97;5061858;28;20479;-82
2022/04/15 05:38:18;;;;;;;40.45;27.95;;;;;;;9.22;93.26;101910.91;5060368;28;20567;-83
2022/04/15 05:40:47;;;;;;;36.42;26.10;;;;;;;9.36;92.80;101915.09;5061592;28;20435;-83
2022/04/15 05:43:13;;;;;;;39.22;27.48;;;;;;;9.43;92.68;101920.69;5061960;28;20116;-83
2022/04/15 05:45:40;;;;;;;40.33;28.27;;;;;;;9.41;93.00;101926.03;5061191;28;20064;-83
2022/04/15 05:48:07;;;;;;;40.75;27.20;;;;;;;9.42;92.90;101926.84;5060797;28;20053;-83
2022/04/15 05:50:34;;;;;;;39.63;27.45;;;;;;;9.61;92.35;101935.75;5061831;28;20130;-83
2022/04/15 05:53:00;;;;;;;41.28;28.38;;;;;;;9.87;92.54;101940.78;5061884;28;20112;-83
2022/04/15 05:55:27;;;;;;;41.00;28.52;;;;;;;10.03;91.86;101935.97;5061770;28;20071;-84
2022/04/15 05:57:55;;;;;;;41.80;27.70;;;;;;;10.77;89.35;101939.63;5061807;28;20056;-83
2022/04/15 06:00:22;;;;;;;37.42;26.17;;;;;;;11.44;86.29;101943.66;5062196;28;20137;-83
2022/04/15 06:02:48;;;;;;;39.15;25.55;;;;;;;11.51;84.00;101945.63;5062351;28;20127;-83
2022/04/15 06:05:15;;;;;;;35.15;25.45;;;;;;;12.05;81.97;101949.75;5061284;28;20076;-83
2022/04/15 06:07:42;;;;;;;34.35;23.77;;;;;;;12.64;79.36;101951.53;5061914;28;20128;-83
2022/04/15 06:10:09;;;;;;;30.38;23.00;;;;;;;12.58;79.04;101968.66;5060723;28;20069;-83
2022/04/15 06:17:46;;;;;;;27.50;21.52;;;;;;;13.08;76.23;101946.69;5103070;28;20056;-80
2022/04/15 06:20:18;;;;;;;29.35;22.77;;;;;;;12.93;76.97;101960.22;5103951;28;20074;-81
2022/04/15 06:22:45;;;;;;;30.57;22.40;;;;;;;12.55;78.13;101976.81;5100352;28;20040;-81
2022/04/15 06:25:21;;;;;;;29.33;21.70;;;;;;;13.34;76.18;101968.78;5109719;28;20810;-81
2022/04/15 06:27:49;;;;;;;28.02;21.65;;;;;;;13.87;73.47;101963.78;5120847;28;20120;-80
2022/04/15 06:30:20;;;;;;;28.38;21.80;;;;;;;13.66;74.52;101976.34;5120631;28;20085;-80
2022/04/15 06:32:50;;;;;;;27.60;21.80;;;;;;;13.80;73.34;101980.28;5120699;28;20047;-81
2022/04/15 06:35:17;;;;;;;29.38;21.65;;;;;;;13.74;73.83;101975.59;5120098;28;20134;-82
2022/04/15 06:37:43;;;;;;;29.45;21.13;;;;;;;13.84;73.93;101984.28;5121108;28;20483;-81
2022/04/15 06:40:11;;;;;;;25.60;20.80;;;;;;;14.20;72.26;101988.69;5120843;28;20130;-81
2022/04/15 06:42:38;;;;;;;24.95;20.65;;;;;;;14.58;71.13;101992.09;5120729;28;20047;-81
2022/04/15 06:45:05;;;;;;;26.55;20.45;;;;;;;14.76;69.86;101994.72;5121108;28;20505;-80
2022/04/15 06:47:32;;;;;;;25.83;19.63;;;;;;;13.86;72.10;101985.78;5136340;28;20055;-79
2022/04/15 06:50:00;;;;;;;23.50;19.27;;;;;;;13.89;72.72;101987.31;5136202;28;20086;-80
2022/04/15 06:52:27;;;;;;;28.48;20.50;;;;;;;13.75;73.22;101990.41;5136930;28;20071;-80
2022/04/15 06:54:54;;;;;;;26.50;20.73;;;;;;;12.91;75.88;102001.56;5123711;28;20075;-79
2022/04/15 06:57:21;;;;;;;29.85;21.17;;;;;;;12.96;77.02;102002.00;5120050;28;20494;-80
2022/04/15 06:59:47;;;;;;;30.20;21.15;;;;;;;13.04;76.08;102000.47;5119402;28;20047;-79
2022/04/15 07:02:14;;;;;;;27.48;19.58;;;;;;;13.27;74.74;102009.75;5120088;28;20146;-80
2022/04/15 07:04:40;;;;;;;24.25;18.20;;;;;;;12.78;75.62;102015.94;5120444;28;20066;-78
2022/04/15 07:07:08;;;;;;;26.20;18.55;;;;;;;13.24;75.23;102028.41;5119284;28;20043;-80
2022/04/15 07:09:35;;;;;;;23.55;17.95;;;;;;;14.32;70.71;102010.38;5119328;28;20103;-81
2022/04/15 07:12:02;;;;;;;21.90;16.45;;;;;;;14.55;68.51;102024.00;5119688;28;20051;-80
2022/04/15 07:14:30;;;;;;;23.45;16.08;;;;;;;13.89;70.74;102026.78;5119495;28;20064;-80
2022/04/15 07:16:56;;;;;;;22.73;16.75;;;;;;;13.16;72.46;102029.16;5119167;28;20100;-80
2022/04/15 07:19:23;;;;;;;24.30;18.85;;;;;;;12.94;74.05;102032.00;5119046;28;20152;-81
2022/04/15 07:21:49;;;;;;;23.92;19.00;;;;;;;12.61;75.29;102028.78;5119430;28;20571;-82
2022/04/15 07:24:17;;;;;;;28.52;23.63;;;;;;;12.52;76.00;102029.59;5119016;28;20116;-80
2022/04/15 07:26:44;;;;;;;36.13;26.48;;;;;;;12.41;76.24;102034.09;5119461;28;20127;-80
2022/04/15 07:29:11;;;;;;;39.17;31.20;;;;;;;12.37;76.90;102037.97;5118737;28;20082;-80
2022/04/15 07:31:38;;;;;;;44.10;32.63;;;;;;;11.80;78.48;102036.78;5119175;28;20155;-80
2022/04/15 07:34:06;;;;;;;47.60;34.45;;;;;;;11.55;80.54;102043.22;5119237;28;20088;-80
2022/04/15 07:36:43;;;;;;;48.88;35.55;;;;;;;11.68;79.36;102045.63;5118869;28;20047;-79
2022/04/15 07:39:11;;;;;;;59.03;38.47;;;;;;;11.05;81.36;102060.47;5118342;28;20390;-80
2022/04/15 07:41:39;;;;;;;67.03;40.70;;;;;;;10.52;83.38;102049.88;5118778;28;20059;-80
2022/04/15 07:44:07;;;;;;;68.72;41.72;;;;;;;10.39;84.63;102060.50;5118946;28;20138;-79
2022/04/15 07:46:35;;;;;;;75.22;43.72;;;;;;;10.42;84.52;102057.63;5118812;28;20075;-80
2022/04/15 07:49:02;;;;;;;85.57;47.53;;;;;;;10.18;85.58;102057.72;5117543;28;20077;-80
2022/04/15 07:51:28;;;;;;;89.18;49.10;;;;;;;10.09;86.53;102055.81;5119009;28;20489;-80
2022/04/15 07:53:55;;;;;;;87.88;49.42;;;;;;;10.03;87.30;102061.50;5118896;28;20134;-80
2022/04/15 07:56:21;;;;;;;94.22;52.13;;;;;;;9.84;87.70;102066.50;5116779;28;20459;-79
2022/04/15 07:58:50;;;;;;;94.07;53.05;;;;;;;10.16;87.42;102057.00;5118465;28;20099;-80
2022/04/15 08:01:17;;;;;;;97.38;52.63;;;;;;;10.32;86.48;102072.41;5119610;28;20067;-79
2022/04/15 08:03:43;;;;;;;96.60;55.03;;;;;;;10.27;86.41;102070.13;5120710;28;20111;-79
2022/04/15 08:06:10;;;;;;;104.18;57.38;;;;;;;10.11;86.60;102080.06;5117858;28;20074;-80
2022/04/15 08:08:37;;;;;;;99.63;55.55;;;;;;;10.34;86.21;102075.72;5117889;28;20126;-80
2022/04/15 08:11:03;;;;;;;93.70;53.40;;;;;;;10.25;86.59;102073.81;5123506;28;20044;-80
2022/04/15 08:13:30;;;;;;;85.45;50.65;;;;;;;10.38;85.79;102084.16;5119046;28;20078;-80
2022/04/15 08:15:58;;;;;;;91.10;51.90;;;;;;;10.45;85.39;102083.53;5118008;28;20131;-81
2022/04/15 08:18:26;;;;;;;85.47;51.08;;;;;;;10.23;85.20;102081.78;5117834;28;20047;-81
2022/04/15 08:20:55;;;;;;;86.57;50.00;;;;;;;10.52;85.56;102083.91;5118659;28;20059;-81
2022/04/15 08:23:22;;;;;;;78.38;49.35;;;;;;;10.24;86.22;102086.06;5118856;28;20051;-81
2022/04/15 08:25:49;;;;;;;79.03;46.17;;;;;;;9.97;86.65;102091.56;5118890;28;20135;-81
2022/04/15 08:28:16;;;;;;;81.45;49.28;;;;;;;9.87;87.43;102092.41;5118249;28;20139;-81
2022/04/15 08:30:42;;;;;;;75.95;47.35;;;;;;;9.95;87.11;102097.88;5119069;28;20107;-80
2022/04/15 08:33:11;;;;;;;74.72;45.80;;;;;;;9.98;87.29;102098.47;5119490;28;20103;-80
2022/04/15 08:35:39;;;;;;;78.93;48.17;;;;;;;9.72;87.82;102099.63;5118425;28;20063;-80
2022/04/15 08:38:07;;;;;;;80.10;45.72;;;;;;;9.43;88.59;102117.47;5117646;28;20424;-81
2022/04/15 08:40:35;;;;;;;83.75;48.22;;;;;;;9.15;89.94;102102.94;5119234;28;20110;-81
2022/04/15 08:43:05;;;;;;;85.30;48.53;;;;;;;9.29;89.44;102118.47;5118918;28;20054;-81
2022/04/15 08:45:32;;;;;;;78.65;47.17;;;;;;;9.57;88.68;102108.59;5121158;28;20062;-81
2022/04/15 08:48:00;;;;;;;91.72;50.28;;;;;;;9.73;87.97;102103.91;5119063;28;20086;-81
2022/04/15 08:50:30;;;;;;;98.05;51.88;;;;;;;9.74;87.54;102113.41;5118646;28;20074;-80
2022/04/15 08:52:57;;;;;;;98.18;52.47;;;;;;;9.94;86.34;102112.72;5118700;28;20150;-80
2022/04/15 08:55:27;;;;;;;93.03;50.00;;;;;;;9.81;86.50;102124.25;5118405;28;20067;-80
2022/04/15 08:57:54;;;;;;;92.53;48.75;;;;;;;9.95;85.93;102118.78;5118561;28;20044;-81
2022/04/15 09:00:22;;;;;;;85.50;47.40;;;;;;;10.18;84.85;102127.53;5119439;28;20068;-81
2022/04/15 09:02:50;;;;;;;78.68;43.65;;;;;;;10.00;84.65;102121.91;5118589;28;20157;-79
2022/04/15 09:05:20;;;;;;;63.10;37.85;;;;;;;10.01;84.68;102126.19;5118248;28;20489;-80
2022/04/15 09:07:48;;;;;;;57.10;34.15;;;;;;;9.97;85.68;102128.19;5121570;28;20056;-81
2022/04/15 09:10:18;;;;;;;45.47;31.30;;;;;;;10.16;84.27;102130.25;5122139;28;20083;-80
2022/04/15 09:12:46;;;;;;;44.90;27.77;;;;;;;10.09;83.60;102126.44;5123002;28;20054;-79
2022/04/15 09:15:14;;;;;;;38.33;25.92;;;;;;;10.16;82.06;102135.47;5122175;28;20496;-79
2022/04/15 09:17:42;;;;;;;38.85;26.55;;;;;;;10.69;79.92;102130.53;5122328;28;20516;-79
2022/04/15 09:20:11;;;;;;;39.40;26.33;;;;;;;11.92;75.54;102138.84;5123209;28;20123;-81
2022/04/15 09:22:40;;;;;;;36.13;24.60;;;;;;;12.06;72.72;102135.06;5121852;28;20411;-80
2022/04/15 09:25:10;;;;;;;34.35;24.77;;;;;;;12.63;69.94;102136.31;5122050;28;20107;-81
2022/04/15 09:27:38;;;;;;;32.33;24.85;;;;;;;12.94;69.19;102140.56;5121020;28;20190;-79
2022/04/15 09:30:06;;;;;;;31.25;25.48;;;;;;;12.99;67.44;102147.19;5120012;28;20043;-80
2022/04/15 09:32:33;;;;;;;35.47;24.98;;;;;;;12.66;69.01;102143.94;5122274;28;20537;-80
2022/04/15 09:35:01;;;;;;;33.75;26.02;;;;;;;13.26;66.25;102145.59;5122075;28;20044;-80
2022/04/15 09:37:29;;;;;;;33.05;25.50;;;;;;;13.39;65.96;102145.34;5120825;28;20420;-81
2022/04/15 09:40:12;;;;;;;34.08;27.02;;;;;;;13.11;64.17;102146.13;5121741;28;20051;-80
2022/04/15 09:42:45;;;;;;;34.38;27.17;;;;;;;13.15;65.13;102142.25;5122340;28;20134;-80
2022/04/15 09:45:13;;;;;;;35.20;27.85;;;;;;;13.49;64.25;102153.25;5121666;28;20418;-79
2022/04/15 09:47:40;;;;;;;35.00;28.45;;;;;;;12.63;66.37;102142.41;5121590;28;20065;-80
2022/04/15 09:50:08;;;;;;;32.67;27.65;;;;;;;12.95;66.91;102144.84;5120920;28;20048;-80
2022/04/15 09:52:35;;;;;;;34.90;28.77;;;;;;;12.77;65.42;102135.94;5121335;28;20059;-80
2022/04/15 09:55:02;;;;;;;34.58;27.88;;;;;;;12.60;66.41;102139.22;5121884;28;20114;-80
2022/04/15 09:57:34;;;;;;;32.28;27.25;;;;;;;13.13;65.03;102133.69;5122254;28;20042;-80
2022/04/15 10:00:04;;;;;;;32.72;27.65;;;;;;;13.40;63.49;102133.88;5120749;28;20044;-81
2022/04/15 10:02:36;;;;;;;31.58;26.92;;;;;;;13.47;63.12;102142.88;5121785;28;20078;-80
2022/04/15 10:05:03;;;;;;;30.48;25.75;;;;;;;13.00;63.10;102125.22;5121289;28;20073;-81
2022/04/15 10:07:31;;;;;;;32.63;25.35;;;;;;;13.34;63.36;102125.69;5120889;28;20130;-81
2022/04/15 10:09:59;;;;;;;26.98;24.08;;;;;;;13.01;63.50;102121.63;5121107;28;20079;-80
2022/04/15 10:12:26;;;;;;;27.23;23.27;;;;;;;13.43;62.82;102122.25;5121693;28;20107;-81
2022/04/15 10:14:54;;;;;;;26.77;21.83;;;;;;;13.54;62.13;102130.84;5120712;28;20075;-80
2022/04/15 10:17:22;;;;;;;27.05;22.20;;;;;;;13.90;62.04;102126.63;5121531;28;20090;-81
2022/04/15 10:19:50;;;;;;;25.80;22.35;;;;;;;13.69;60.97;102128.63;5120078;27;20373;-81
2022/04/15 10:22:17;;;;;;;26.85;23.05;;;;;;;13.54;62.16;102122.09;5121151;28;20123;-81
2022/04/15 10:24:45;;;;;;;24.25;21.67;;;;;;;13.75;61.28;102125.41;5121195;28;20044;-80
2022/04/15 10:27:13;;;;;;;21.75;18.60;;;;;;;13.62;60.93;102127.50;5121153;28;20051;-81
2022/04/15 10:29:39;;;;;;;18.00;16.10;;;;;;;13.89;60.35;102124.13;5120850;28;20061;-81
2022/04/15 10:32:14;;;;;;;20.13;17.42;;;;;;;13.10;61.75;102119.00;5120983;28;20051;-81
2022/04/15 10:34:46;;;;;;;18.42;16.15;;;;;;;13.57;61.51;102114.78;5120656;28;20075;-80
2022/04/15 10:37:13;;;;;;;18.67;15.10;;;;;;;13.63;60.59;102117.81;5120514;28;20043;-81
2022/04/15 10:39:47;;;;;;;17.52;14.15;;;;;;;13.91;60.09;102127.47;5120240;28;20115;-81
2022/04/15 10:42:18;;;;;;;15.55;13.73;;;;;;;14.08;59.41;102124.09;5121141;28;20066;-81
2022/04/15 10:44:45;;;;;;;16.23;14.63;;;;;;;14.34;58.40;102112.94;5121299;28;20049;-81
2022/04/15 10:47:27;;;;;;;19.10;14.07;;;;;;;14.86;57.41;102108.81;5121577;28;20138;-81
2022/04/15 10:49:56;;;;;;;15.98;14.27;;;;;;;14.73;57.70;102111.78;5120822;28;20052;-82
2022/04/15 10:52:24;;;;;;;15.63;13.80;;;;;;;14.67;58.27;102107.09;5120091;28;20044;-80
2022/04/15 10:54:53;;;;;;;13.35;11.65;;;;;;;14.17;57.87;102123.25;5120879;28;20062;-80
2022/04/15 10:57:21;;;;;;;13.65;12.25;;;;;;;13.23;61.47;102119.59;5120679;28;20043;-81
2022/04/15 11:02:42;;;;;;;12.77;11.15;;;;;;;14.12;59.11;102114.94;5120385;28;20059;-81
2022/04/15 11:05:11;;;;;;;12.95;10.02;;;;;;;14.84;57.60;102116.88;5121494;28;20086;-82
2022/04/15 11:07:50;;;;;;;12.80;9.60;;;;;;;14.70;57.38;102114.72;5121085;28;20052;-81
2022/04/15 11:10:19;;;;;;;12.00;10.13;;;;;;;14.72;57.77;102112.78;5122184;28;20096;-81
2022/04/15 11:12:46;;;;;;;11.95;8.95;;;;;;;14.91;57.74;102114.47;5123094;28;20051;-79
2022/04/15 11:15:15;;;;;;;10.35;8.80;;;;;;;13.78;58.82;102113.75;5125472;28;20047;-81
2022/04/15 11:17:47;;;;;;;11.80;9.00;;;;;;;14.06;58.42;102112.88;5123312;28;20047;-81
2022/04/15 11:20:15;;;;;;;14.52;8.63;;;;;;;14.04;58.65;102106.94;5123776;28;20079;-80
2022/04/15 11:22:43;;;;;;;9.95;8.77;;;;;;;14.61;57.42;102115.63;5124329;28;20090;-81
2022/04/15 11:25:10;;;;;;;11.60;9.85;;;;;;;14.04;58.69;102106.94;5121558;28;20138;-79